Briefing drone pour Guerigny

Rechercher une autre localisation

Conditions de vol :


Nous sommes le : Mardi 29 novembre 2022
Il est 03:56 UTC (04:56 LT)

Lever de soleil : 06:43 UTC (07:43 LT)
Coucher de soleil : 16:27 UTC (17:27 LT)

Météo

L'essentiel des conditions de vol

VIGILANCE MÉTÉO FRANCE - Nièvre (58)
Pas de vigilances particulieres
CARTE TEMSI
CARTES DES FRONTS
METAR de LFQG
LFQG 281800Z AUTO 20004KT 9999 FEW035/// ///TCU 07/06 Q1014

Date d'émission: 28/11/2022
Heure d'émission: 18:00 UTC
Vent: 200° pour 4 KT (7 km/h)
Visibilité horizontale: > 10 km
Plafond :
- Peu de nuages à 3500ft (1067m)
Température: 7 °C
Point de rosée: 6 °C
Humidité: 93%
Pression (QNH): 1014 hPa
Prévision 24h pour Nevers (7 km)
Vent : 8° pour 1 KT (4 km/h)
Temperature Maxi: 6 °C
Temperature Min: 6 °C
Humidité : 90%
Condition : Couvert



Warning: count(): Parameter must be an array or an object that implements Countable in /homepages/6/d509196549/htdocs/droneoxygene/briefing.php on line 743
WEBCAM POUR GUERIGNY

Réglementation

Voler en sécurité

CARTES AERONAUTIQUE 1/500.000
CARTE AZBA (Reseau basse altitude)
CARTES VAC (LFQG)
SUP AIP




Chargement des AIP...
NOTAM (GUERIGNY + Terrain à proximité / FIR )




Chargement des NOTAMS...
CONTACT PREFECTURE 58


Avertissement : Les données mises à disposition sont indicatives. Oxygène Drone ne pourra être tenu responsable de dégâts causés aux biens et aux personnes.